Time;durP1;ratioP1;P1;durP2;ratioP2;P2;SDS_P1;SDS_P2;PMS_P1;PMS_P2;Temp;Humidity;BMP_temperature;BMP_pressure;BME280_temperature;BME280_humidity;BME280_pressure;Samples;Min_cycle;Max_cycle;Signal;HPM_P1;HPM_P2
2023/03/22 00:00:42;;;;;;;11.83;10.87;;;;;;;8.90;100.00;92459.25;5071573;28;20222;-74
2023/03/22 00:03:09;;;;;;;12.47;11.57;;;;;;;8.81;100.00;92450.47;5072847;28;20193;-74
2023/03/22 00:05:34;;;;;;;12.40;11.47;;;;;;;8.73;100.00;92451.81;5071111;28;20214;-74
2023/03/22 00:08:04;;;;;;;13.10;12.10;;;;;;;8.83;100.00;92458.78;5071840;28;20204;-74
2023/03/22 00:10:30;;;;;;;12.90;11.90;;;;;;;8.90;100.00;92462.63;5069750;28;20225;-74
2023/03/22 00:12:55;;;;;;;13.50;12.60;;;;;;;8.82;100.00;92458.00;5072022;28;20250;-74
2023/03/22 00:15:21;;;;;;;13.63;12.63;;;;;;;8.93;100.00;92464.72;5071299;28;20323;-74
2023/03/22 00:17:49;;;;;;;13.40;12.47;;;;;;;8.93;100.00;92459.50;5070589;28;20268;-74
2023/03/22 00:20:16;;;;;;;12.40;11.50;;;;;;;8.83;100.00;92462.16;5071145;28;20232;-74
2023/03/22 00:22:42;;;;;;;12.93;12.07;;;;;;;8.73;100.00;92438.78;5071875;28;20196;-74
2023/03/22 00:25:08;;;;;;;12.87;11.93;;;;;;;8.92;100.00;92455.31;5071079;28;20257;-74
2023/03/22 00:27:33;;;;;;;12.97;11.80;;;;;;;8.87;100.00;92439.72;5072273;28;20198;-74
2023/03/22 00:29:59;;;;;;;12.57;11.67;;;;;;;8.91;100.00;92448.56;5070937;28;20213;-74
2023/03/22 00:32:24;;;;;;;12.63;11.73;;;;;;;8.92;100.00;92451.97;5071652;28;20852;-75
2023/03/22 00:34:49;;;;;;;12.93;12.13;;;;;;;8.86;100.00;92443.41;5070253;28;20224;-74
2023/03/22 00:37:15;;;;;;;12.87;11.77;;;;;;;8.85;100.00;92436.66;5071737;28;20205;-74
2023/03/22 00:39:41;;;;;;;10.83;10.03;;;;;;;8.84;100.00;92436.91;5070900;28;20671;-74
2023/03/22 00:42:07;;;;;;;12.07;11.17;;;;;;;8.90;100.00;92441.03;5071367;28;20775;-74
2023/03/22 00:44:32;;;;;;;10.50;9.80;;;;;;;8.83;100.00;92430.13;5069953;28;20305;-74
2023/03/22 00:46:57;;;;;;;11.23;10.43;;;;;;;8.78;100.00;92433.56;5071545;28;20276;-74
2023/03/22 00:49:24;;;;;;;12.70;11.50;;;;;;;8.83;100.00;92435.34;5069541;28;20212;-74
2023/03/22 00:51:50;;;;;;;13.23;12.40;;;;;;;8.80;100.00;92436.69;5071199;28;20177;-74
2023/03/22 00:54:16;;;;;;;14.13;12.90;;;;;;;8.81;100.00;92440.06;5070775;28;20184;-74
2023/03/22 00:56:44;;;;;;;14.00;12.80;;;;;;;8.77;100.00;92436.44;5071307;28;20181;-74
2023/03/22 00:59:11;;;;;;;12.97;12.07;;;;;;;8.81;100.00;92437.47;5071024;28;20231;-74
2023/03/22 01:01:36;;;;;;;13.87;12.50;;;;;;;8.80;100.00;92435.88;5071033;28;20209;-74
2023/03/22 01:04:03;;;;;;;13.90;12.83;;;;;;;8.60;100.00;92438.63;5071547;28;20272;-74
2023/03/22 01:06:29;;;;;;;12.93;11.83;;;;;;;8.70;100.00;92433.38;5070569;28;20231;-74
2023/03/22 01:08:56;;;;;;;13.47;12.47;;;;;;;8.85;100.00;92435.84;5071024;28;20186;-74
2023/03/22 01:11:23;;;;;;;13.03;12.13;;;;;;;8.74;100.00;92435.16;5069541;28;20268;-74
2023/03/22 01:13:49;;;;;;;11.63;10.90;;;;;;;8.78;100.00;92432.81;5070321;28;20200;-75
2023/03/22 01:16:15;;;;;;;11.67;10.80;;;;;;;8.66;100.00;92435.72;5070559;28;20229;-74
2023/03/22 01:18:40;;;;;;;11.03;10.23;;;;;;;8.58;100.00;92433.69;5070057;28;20232;-74
2023/03/22 01:21:06;;;;;;;11.63;10.93;;;;;;;8.47;100.00;92426.25;5070350;28;20245;-74
2023/03/22 01:23:31;;;;;;;11.20;10.50;;;;;;;8.27;100.00;92429.72;5070298;28;20182;-74
2023/03/22 01:25:57;;;;;;;10.80;10.00;;;;;;;8.26;100.00;92422.19;5070367;28;20488;-72
2023/03/22 01:28:22;;;;;;;11.67;10.97;;;;;;;8.09;100.00;92354.94;5070109;28;20220;-74
2023/03/22 01:30:49;;;;;;;11.73;10.93;;;;;;;8.61;100.00;92424.56;5070024;28;20213;-74
2023/03/22 01:33:15;;;;;;;11.37;10.67;;;;;;;8.62;100.00;92405.31;5070510;28;20186;-73
2023/03/22 01:35:40;;;;;;;10.90;10.10;;;;;;;8.44;100.00;92418.94;5069965;28;20236;-74
2023/03/22 01:38:05;;;;;;;10.60;9.70;;;;;;;8.51;100.00;92417.63;5070011;28;20205;-74
2023/03/22 01:40:32;;;;;;;10.20;9.60;;;;;;;8.49;100.00;92408.53;5070048;28;20300;-74
2023/03/22 01:42:57;;;;;;;10.77;10.07;;;;;;;8.48;100.00;92402.56;5070091;28;20169;-74
2023/03/22 01:45:52;;;;;;;11.77;11.00;;;;;;;8.53;100.00;92417.34;5069707;28;20301;-74
2023/03/22 01:48:20;;;;;;;10.70;10.10;;;;;;;8.51;100.00;92414.25;5069315;28;20215;-74
2023/03/22 01:51:02;;;;;;;10.07;9.47;;;;;;;8.56;100.00;92411.63;5101856;28;20221;-73
2023/03/22 01:53:29;;;;;;;9.50;9.00;;;;;;;8.56;100.00;92406.41;5069532;28;20177;-74
2023/03/22 01:55:56;;;;;;;9.87;9.47;;;;;;;8.37;100.00;92408.88;5069666;28;20225;-73
2023/03/22 01:58:22;;;;;;;9.33;8.80;;;;;;;7.96;100.00;92408.28;5069813;28;20211;-74
2023/03/22 02:00:50;;;;;;;9.50;9.07;;;;;;;7.67;100.00;92404.75;5069391;28;20245;-73
2023/03/22 02:03:23;;;;;;;9.83;9.10;;;;;;;8.05;100.00;92406.66;5070174;28;20185;-73
2023/03/22 02:05:49;;;;;;;8.97;8.47;;;;;;;8.11;100.00;92405.59;5068791;28;20241;-74
2023/03/22 02:08:14;;;;;;;9.77;9.27;;;;;;;8.14;100.00;92410.25;5069769;28;20185;-74
2023/03/22 02:10:40;;;;;;;9.50;9.10;;;;;;;8.17;100.00;92404.50;5069051;28;20209;-74
2023/03/22 02:13:18;;;;;;;9.87;9.37;;;;;;;8.24;100.00;92404.25;5069909;28;20239;-74
2023/03/22 02:16:09;;;;;;;9.77;9.27;;;;;;;8.25;100.00;92410.25;5068751;28;20228;-74
2023/03/22 02:18:42;;;;;;;8.33;8.00;;;;;;;8.07;100.00;92389.00;5069180;28;20247;-74
2023/03/22 02:21:23;;;;;;;8.87;8.47;;;;;;;8.06;100.00;92408.22;5069184;28;20233;-74
2023/03/22 02:24:07;;;;;;;9.80;9.30;;;;;;;8.03;100.00;92406.16;5068360;28;20220;-74
2023/03/22 02:26:48;;;;;;;9.17;8.77;;;;;;;7.87;100.00;92411.69;5068796;28;20304;-73
2023/03/22 02:29:13;;;;;;;8.57;8.27;;;;;;;7.98;100.00;92416.56;5068538;28;20231;-74
2023/03/22 02:32:01;;;;;;;9.03;8.73;;;;;;;8.20;100.00;92416.97;5069326;28;20193;-73
2023/03/22 02:35:05;;;;;;;8.47;8.17;;;;;;;8.18;100.00;92410.50;5071290;28;20229;-74
2023/03/22 02:37:57;;;;;;;8.53;8.17;;;;;;;8.21;100.00;92420.38;5070722;28;20753;-73
2023/03/22 02:40:38;;;;;;;8.33;7.93;;;;;;;8.10;100.00;92422.25;5067696;28;20241;-74
2023/03/22 02:43:24;;;;;;;9.03;8.63;;;;;;;8.23;100.00;92422.72;5068504;28;20248;-74
2023/03/22 02:46:05;;;;;;;9.50;9.10;;;;;;;8.23;100.00;92422.72;5067692;28;20221;-74
2023/03/22 02:48:48;;;;;;;8.97;8.63;;;;;;;8.09;100.00;92431.06;5068344;28;20185;-74
2023/03/22 02:51:20;;;;;;;8.67;8.17;;;;;;;8.19;100.00;92425.84;5068335;28;20286;-74
2023/03/22 02:54:07;;;;;;;8.80;8.40;;;;;;;8.10;100.00;92437.84;5068480;28;20185;-73
2023/03/22 02:56:46;;;;;;;9.13;8.73;;;;;;;7.99;100.00;92436.34;5066940;28;20232;-74
2023/03/22 02:59:13;;;;;;;9.50;9.10;;;;;;;8.22;100.00;92434.16;5066142;28;20236;-74
2023/03/22 03:01:43;;;;;;;8.83;8.43;;;;;;;8.00;100.00;92430.06;5067319;28;20189;-73
2023/03/22 03:04:19;;;;;;;9.57;9.07;;;;;;;7.73;100.00;92366.53;5068305;28;20220;-74
2023/03/22 03:06:48;;;;;;;9.73;9.33;;;;;;;8.22;100.00;92441.94;5066941;28;20226;-73
2023/03/22 03:09:19;;;;;;;9.57;9.07;;;;;;;8.19;100.00;92419.84;5073525;28;20189;-74
2023/03/22 03:11:50;;;;;;;9.17;8.77;;;;;;;8.20;100.00;92437.78;5075305;28;20181;-74
2023/03/22 03:14:42;;;;;;;9.43;9.03;;;;;;;8.06;100.00;92433.44;5074963;28;20201;-74
2023/03/22 03:17:26;;;;;;;9.40;9.00;;;;;;;8.24;100.00;92434.66;5106974;28;20319;-74
2023/03/22 03:20:10;;;;;;;8.87;8.47;;;;;;;8.22;100.00;92441.94;5073918;28;20235;-74
2023/03/22 03:22:54;;;;;;;9.20;8.70;;;;;;;8.25;100.00;92441.44;5075278;28;20200;-74
2023/03/22 03:25:29;;;;;;;9.10;8.77;;;;;;;8.10;100.00;92445.66;5074772;28;20251;-74
2023/03/22 03:28:07;;;;;;;9.03;8.63;;;;;;;8.26;100.00;92443.00;5075360;28;20215;-74
2023/03/22 03:30:43;;;;;;;9.07;8.77;;;;;;;8.16;100.00;92443.78;5074695;28;20217;-74
2023/03/22 03:33:16;;;;;;;8.57;8.17;;;;;;;8.25;100.00;92446.66;5075467;28;20253;-74
2023/03/22 03:36:00;;;;;;;8.43;8.03;;;;;;;8.16;100.00;92451.59;5073763;28;20212;-74
2023/03/22 03:38:29;;;;;;;8.50;8.10;;;;;;;8.14;100.00;92454.44;5073684;28;20217;-74
2023/03/22 03:41:00;;;;;;;9.13;8.73;;;;;;;8.25;100.00;92446.66;5073629;28;20225;-74
2023/03/22 03:43:26;;;;;;;9.47;9.07;;;;;;;8.26;100.00;92443.00;5075053;28;20201;-74
2023/03/22 03:45:54;;;;;;;9.20;8.73;;;;;;;8.10;100.00;92444.84;5074278;28;20224;-74
2023/03/22 03:48:26;;;;;;;9.27;8.87;;;;;;;7.90;100.00;92450.16;5074781;28;20241;-74
2023/03/22 03:50:54;;;;;;;8.83;8.43;;;;;;;8.01;100.00;92452.44;5074497;28;20224;-74
2023/03/22 03:53:20;;;;;;;9.73;9.33;;;;;;;7.91;100.00;92436.88;5075052;28;20204;-74
2023/03/22 03:55:45;;;;;;;9.23;8.83;;;;;;;7.94;100.00;92449.34;5074468;28;20219;-74
2023/03/22 03:58:12;;;;;;;9.33;8.93;;;;;;;7.80;100.00;92424.97;5075225;28;20243;-74
2023/03/22 04:00:38;;;;;;;9.10;8.60;;;;;;;8.00;100.00;92450.88;5074381;28;20217;-74
2023/03/22 04:03:05;;;;;;;8.67;8.37;;;;;;;8.10;100.00;92443.03;5075339;28;20261;-74
2023/03/22 04:05:31;;;;;;;9.10;8.67;;;;;;;8.20;100.00;92458.59;5073799;28;20220;-74
2023/03/22 04:07:56;;;;;;;8.63;8.33;;;;;;;7.69;100.00;92454.63;5074895;28;20212;-74
2023/03/22 04:10:22;;;;;;;8.23;7.83;;;;;;;7.67;100.00;92456.69;5074696;28;20216;-74
2023/03/22 04:12:47;;;;;;;9.40;9.00;;;;;;;7.58;100.00;92463.47;5075017;28;20193;-74
2023/03/22 04:15:13;;;;;;;9.73;9.23;;;;;;;7.62;100.00;92464.53;5074483;28;20228;-74
2023/03/22 04:17:39;;;;;;;10.33;9.83;;;;;;;7.89;100.00;92466.78;5074734;28;20300;-74
2023/03/22 04:20:08;;;;;;;8.83;8.33;;;;;;;7.97;100.00;92456.59;5070312;28;20240;-74
2023/03/22 04:22:33;;;;;;;9.67;9.27;;;;;;;8.09;100.00;92467.47;5070707;28;20211;-74
2023/03/22 04:25:03;;;;;;;9.03;8.63;;;;;;;8.19;100.00;92461.44;5069997;28;20809;-74
2023/03/22 04:27:28;;;;;;;9.43;9.00;;;;;;;8.19;100.00;92467.44;5071586;28;20181;-74
2023/03/22 04:29:54;;;;;;;9.73;9.30;;;;;;;7.65;100.00;92458.78;5069704;28;20240;-74
2023/03/22 04:32:23;;;;;;;10.13;9.70;;;;;;;7.84;100.00;92462.34;5071619;28;20185;-74
2023/03/22 04:34:51;;;;;;;8.53;8.23;;;;;;;7.91;100.00;92468.06;5070735;28;20235;-73
2023/03/22 04:37:17;;;;;;;8.73;8.40;;;;;;;8.10;100.00;92476.06;5071362;28;20181;-74
2023/03/22 04:39:44;;;;;;;9.37;8.87;;;;;;;8.12;100.00;92479.19;5069784;28;21005;-74
2023/03/22 04:42:10;;;;;;;8.57;8.27;;;;;;;8.12;100.00;92482.53;5070694;28;20178;-74
2023/03/22 04:44:35;;;;;;;9.23;8.83;;;;;;;7.97;100.00;92476.59;5070619;28;20227;-74
2023/03/22 04:47:01;;;;;;;9.23;8.77;;;;;;;8.18;100.00;92473.69;5070368;28;20197;-74
2023/03/22 04:49:27;;;;;;;9.90;9.43;;;;;;;8.39;100.00;92481.44;5070302;28;20189;-75
2023/03/22 04:51:54;;;;;;;9.17;8.77;;;;;;;8.15;100.00;92489.78;5071095;28;20208;-79
2023/03/22 04:54:20;;;;;;;10.10;9.50;;;;;;;8.27;100.00;92480.94;5070661;28;20208;-70
2023/03/22 04:56:45;;;;;;;9.73;9.27;;;;;;;8.00;100.00;92463.88;5070942;28;20189;-74
2023/03/22 04:59:10;;;;;;;9.77;9.27;;;;;;;8.08;100.00;92491.91;5071192;28;20221;-69
2023/03/22 05:01:36;;;;;;;10.00;9.50;;;;;;;7.97;100.00;92493.00;5070464;28;20817;-70
2023/03/22 05:04:02;;;;;;;9.57;9.17;;;;;;;8.02;100.00;92490.38;5071326;28;20190;-69
2023/03/22 05:06:31;;;;;;;9.97;9.57;;;;;;;7.98;100.00;92497.13;5070297;28;20247;-70
2023/03/22 05:08:57;;;;;;;10.07;9.47;;;;;;;8.16;100.00;92486.19;5065901;28;20213;-70
2023/03/22 05:11:26;;;;;;;9.93;9.43;;;;;;;8.27;100.00;92489.53;5069575;28;20225;-68
2023/03/22 05:13:52;;;;;;;9.53;9.13;;;;;;;8.16;100.00;92509.56;5067654;28;20193;-69
2023/03/22 05:16:18;;;;;;;10.40;9.87;;;;;;;8.39;100.00;92508.19;5068870;28;20229;-68
2023/03/22 05:18:44;;;;;;;10.63;10.13;;;;;;;8.35;100.00;92499.38;5069281;28;20239;-69
2023/03/22 05:21:16;;;;;;;9.83;9.33;;;;;;;8.34;100.00;92507.44;5068742;28;20261;-70
2023/03/22 05:23:42;;;;;;;9.67;9.27;;;;;;;8.33;100.00;92505.91;5068403;28;20197;-69
2023/03/22 05:26:09;;;;;;;9.33;8.70;;;;;;;8.55;100.00;92488.09;5068176;28;20240;-69
2023/03/22 05:28:35;;;;;;;9.67;9.27;;;;;;;8.53;100.00;92516.22;5067442;28;20213;-66
2023/03/22 05:31:00;;;;;;;9.97;9.57;;;;;;;8.46;100.00;92510.50;5067368;28;20225;-67
2023/03/22 05:33:26;;;;;;;9.63;9.23;;;;;;;8.44;100.00;92512.59;5067998;28;20201;-67
2023/03/22 05:35:52;;;;;;;9.40;9.00;;;;;;;8.37;100.00;92522.53;5068008;28;20214;-66
2023/03/22 05:38:18;;;;;;;9.13;8.83;;;;;;;8.40;100.00;92506.38;5069194;28;20224;-67
2023/03/22 05:40:44;;;;;;;9.77;9.07;;;;;;;8.51;100.00;92513.88;5068738;28;20229;-67
2023/03/22 05:43:09;;;;;;;9.90;9.10;;;;;;;8.47;100.00;92514.69;5069281;28;20178;-68
2023/03/22 05:45:36;;;;;;;9.67;9.27;;;;;;;8.66;100.00;92516.41;5068209;28;20253;-67
2023/03/22 05:48:02;;;;;;;8.93;8.63;;;;;;;8.63;100.00;92518.75;5069229;28;20189;-67
2023/03/22 05:50:27;;;;;;;9.30;8.90;;;;;;;8.62;100.00;92522.41;5068661;28;20244;-68
2023/03/22 05:52:53;;;;;;;8.93;8.60;;;;;;;8.89;100.00;92522.75;5069810;28;20207;-68
2023/03/22 05:55:19;;;;;;;10.37;9.73;;;;;;;8.78;100.00;92529.84;5069108;28;21133;-68
2023/03/22 05:57:45;;;;;;;8.90;8.40;;;;;;;8.71;100.00;92528.59;5068990;28;20201;-66
2023/03/22 06:00:14;;;;;;;8.73;8.13;;;;;;;8.63;100.00;92531.75;5068556;28;20232;-66
2023/03/22 06:02:42;;;;;;;10.13;9.53;;;;;;;8.59;100.00;92533.34;5069575;28;20339;-69
2023/03/22 06:05:09;;;;;;;9.37;8.83;;;;;;;8.76;100.00;92544.97;5069459;28;20743;-68
2023/03/22 06:07:35;;;;;;;9.87;9.27;;;;;;;8.77;100.00;92548.34;5069630;28;20182;-67
2023/03/22 06:10:01;;;;;;;10.03;9.53;;;;;;;8.81;100.00;92544.19;5068934;28;20236;-68
2023/03/22 06:12:26;;;;;;;10.30;9.77;;;;;;;8.63;100.00;92505.75;5069532;28;20192;-74
2023/03/22 06:14:52;;;;;;;10.97;10.20;;;;;;;9.03;100.00;92542.72;5068888;28;20228;-75
2023/03/22 06:17:18;;;;;;;11.17;10.23;;;;;;;9.14;100.00;92549.44;5068905;28;20225;-75
2023/03/22 06:19:43;;;;;;;10.77;9.97;;;;;;;9.05;100.00;92545.06;5067728;28;20224;-75
2023/03/22 06:22:09;;;;;;;9.27;8.73;;;;;;;9.11;100.00;92549.97;5069266;28;20216;-75
2023/03/22 06:24:35;;;;;;;9.73;9.17;;;;;;;8.95;100.00;92513.91;5068443;28;20267;-75
2023/03/22 06:27:00;;;;;;;10.00;9.50;;;;;;;8.96;100.00;92520.66;5069216;28;20213;-75
2023/03/22 06:29:26;;;;;;;9.47;8.97;;;;;;;9.07;100.00;92529.94;5068612;28;20249;-75
2023/03/22 06:31:51;;;;;;;9.77;9.27;;;;;;;9.20;100.00;92548.34;5068222;28;20169;-75
2023/03/22 06:34:16;;;;;;;8.93;8.53;;;;;;;9.23;100.00;92541.81;5067912;28;20217;-75
2023/03/22 06:36:42;;;;;;;9.27;8.77;;;;;;;9.19;100.00;92546.78;5068479;28;20246;-75
2023/03/22 06:39:08;;;;;;;11.80;10.90;;;;;;;9.17;100.00;92548.09;5068606;28;20289;-75
2023/03/22 06:41:33;;;;;;;14.13;12.83;;;;;;;9.15;100.00;92540.56;5068113;28;20225;-75
2023/03/22 06:43:59;;;;;;;11.00;10.10;;;;;;;9.19;100.00;92546.78;5067869;28;20208;-75
2023/03/22 06:46:25;;;;;;;9.87;9.37;;;;;;;9.20;100.00;92555.38;5066614;28;20261;-75
2023/03/22 06:48:50;;;;;;;10.43;9.83;;;;;;;9.21;100.00;92559.53;5067208;28;20207;-75
2023/03/22 06:51:16;;;;;;;9.50;9.00;;;;;;;9.48;100.00;92560.63;5067922;28;20217;-75
2023/03/22 06:53:41;;;;;;;10.27;9.77;;;;;;;9.27;100.00;92548.03;5068760;28;20182;-75
2023/03/22 06:56:07;;;;;;;9.07;8.67;;;;;;;8.71;100.00;92539.81;5069020;28;20244;-75
2023/03/22 06:58:32;;;;;;;10.63;9.93;;;;;;;9.27;100.00;92558.47;5068916;28;20217;-75
2023/03/22 07:00:58;;;;;;;10.67;10.07;;;;;;;9.47;100.00;92571.34;5068425;28;20209;-76
2023/03/22 07:03:23;;;;;;;10.97;10.17;;;;;;;9.50;100.00;92568.19;5068751;28;20339;-75
2023/03/22 07:05:49;;;;;;;11.53;10.73;;;;;;;9.55;100.00;92583.78;5068624;28;20236;-75
2023/03/22 07:08:15;;;;;;;11.20;10.50;;;;;;;9.28;100.00;92566.00;5068867;28;20259;-75
2023/03/22 07:10:41;;;;;;;10.83;10.13;;;;;;;9.39;100.00;92584.94;5068769;28;20281;-76
2023/03/22 07:13:06;;;;;;;11.53;10.73;;;;;;;9.41;100.00;92586.25;5067218;28;20216;-74
2023/03/22 07:15:33;;;;;;;10.87;10.17;;;;;;;9.27;100.00;92584.50;5067302;28;20213;-75
2023/03/22 07:17:59;;;;;;;12.70;11.80;;;;;;;9.19;100.00;92598.88;5068833;28;20193;-75
2023/03/22 07:20:26;;;;;;;12.57;11.67;;;;;;;8.82;100.00;92593.38;5068310;28;20312;-75
2023/03/22 07:22:51;;;;;;;11.73;11.03;;;;;;;8.83;100.00;92601.94;5069053;28;20201;-75
2023/03/22 07:25:17;;;;;;;12.03;11.07;;;;;;;8.97;100.00;92590.66;5068479;28;20229;-75
2023/03/22 07:27:42;;;;;;;11.20;10.50;;;;;;;9.04;100.00;92580.72;5068850;28;20185;-75
2023/03/22 07:30:08;;;;;;;9.53;8.93;;;;;;;9.07;100.00;92574.22;5068040;28;20237;-75
2023/03/22 07:32:33;;;;;;;11.50;10.70;;;;;;;9.09;100.00;92598.16;5068557;28;20216;-75
2023/03/22 07:34:59;;;;;;;11.23;10.43;;;;;;;9.34;100.00;92616.22;5068392;28;20265;-75
2023/03/22 07:37:24;;;;;;;10.63;9.83;;;;;;;9.06;100.00;92614.31;5068569;28;20178;-75
2023/03/22 07:39:49;;;;;;;10.63;9.73;;;;;;;9.15;100.00;92617.94;5066736;28;20269;-75
2023/03/22 07:42:15;;;;;;;11.93;11.03;;;;;;;9.33;100.00;92599.06;5068832;28;20213;-75
2023/03/22 07:44:41;;;;;;;12.60;11.53;;;;;;;9.61;100.00;92609.53;5068088;28;20279;-75
2023/03/22 07:47:06;;;;;;;11.60;10.53;;;;;;;9.39;100.00;92613.59;5068667;28;20189;-75
2023/03/22 07:49:31;;;;;;;12.03;11.03;;;;;;;9.55;100.00;92612.44;5067082;28;20228;-76
2023/03/22 07:51:57;;;;;;;11.47;10.77;;;;;;;9.59;100.00;92613.47;5068589;28;20192;-76
2023/03/22 07:54:22;;;;;;;10.00;9.20;;;;;;;9.51;100.00;92621.84;5069461;28;20185;-75
2023/03/22 07:56:48;;;;;;;11.63;10.93;;;;;;;9.41;100.00;92621.94;5072157;28;20189;-75
2023/03/22 07:59:15;;;;;;;11.13;10.53;;;;;;;9.47;100.00;92632.06;5071882;28;20300;-76
2023/03/22 08:01:41;;;;;;;10.80;10.17;;;;;;;9.27;100.00;92595.72;5071844;28;20190;-75
2023/03/22 08:04:06;;;;;;;9.70;9.13;;;;;;;9.44;100.00;92627.38;5072582;28;20193;-75
2023/03/22 08:06:32;;;;;;;10.97;10.20;;;;;;;9.44;100.00;92631.81;5071570;28;20218;-75
2023/03/22 08:08:58;;;;;;;11.63;10.87;;;;;;;9.43;100.00;92622.44;5072116;28;20253;-75
2023/03/22 08:11:23;;;;;;;11.60;10.80;;;;;;;9.44;100.00;92632.59;5103512;28;20205;-76
2023/03/22 08:13:49;;;;;;;9.63;9.03;;;;;;;9.42;100.00;92597.41;5071516;28;20182;-75
2023/03/22 08:16:14;;;;;;;12.03;11.27;;;;;;;9.64;100.00;92623.84;5071755;28;20267;-75
2023/03/22 08:18:40;;;;;;;9.60;9.10;;;;;;;9.60;100.00;92623.59;5071402;28;20212;-75
2023/03/22 08:21:06;;;;;;;9.87;9.27;;;;;;;9.60;100.00;92628.81;5071261;28;20221;-75
2023/03/22 08:23:31;;;;;;;8.93;8.43;;;;;;;8.79;100.00;92587.91;5071495;28;20170;-76
2023/03/22 08:25:57;;;;;;;13.47;12.73;;;;;;;9.49;100.00;92623.97;5071522;28;20224;-75
2023/03/22 08:28:22;;;;;;;8.33;7.87;;;;;;;9.47;100.00;92631.25;5071687;28;20182;-75
2023/03/22 08:30:48;;;;;;;9.13;8.73;;;;;;;9.21;100.00;92637.69;5071304;28;20271;-75
2023/03/22 08:33:14;;;;;;;9.20;8.70;;;;;;;9.49;100.00;92639.59;5071321;28;20213;-75
2023/03/22 08:35:40;;;;;;;9.63;9.23;;;;;;;9.60;100.00;92638.47;5071382;28;20229;-76
2023/03/22 08:38:06;;;;;;;9.33;8.73;;;;;;;9.64;100.00;92636.88;5071425;28;20269;-75
2023/03/22 08:40:31;;;;;;;9.03;8.53;;;;;;;9.54;100.00;92623.94;5071424;28;20984;-76
2023/03/22 08:42:57;;;;;;;9.00;8.63;;;;;;;9.24;100.00;92626.72;5071422;28;20184;-76
2023/03/22 08:45:22;;;;;;;9.20;8.80;;;;;;;9.63;100.00;92645.75;5071086;28;20245;-74
2023/03/22 08:47:48;;;;;;;8.30;7.93;;;;;;;9.58;100.00;92622.34;5070348;28;20197;-75
2023/03/22 08:50:13;;;;;;;10.50;9.57;;;;;;;9.65;100.00;92646.25;5070763;28;20288;-75
2023/03/22 08:52:39;;;;;;;9.63;9.13;;;;;;;9.58;100.00;92628.34;5071278;28;20186;-76
2023/03/22 08:55:07;;;;;;;9.60;8.93;;;;;;;9.66;100.00;92643.38;5071057;28;20256;-75
2023/03/22 08:57:33;;;;;;;9.90;9.40;;;;;;;9.60;100.00;92641.09;5071632;28;20173;-76
2023/03/22 08:59:59;;;;;;;9.93;9.33;;;;;;;9.64;100.00;92634.28;5071161;28;20236;-76
2023/03/22 09:02:25;;;;;;;8.77;8.37;;;;;;;9.60;100.00;92636.63;5070540;28;20273;-76
2023/03/22 09:04:50;;;;;;;8.97;8.57;;;;;;;9.55;100.00;92623.66;5071057;28;20236;-75
2023/03/22 09:07:23;;;;;;;9.37;8.87;;;;;;;9.51;100.00;92625.25;5069143;28;20183;-76
2023/03/22 09:09:49;;;;;;;9.43;9.03;;;;;;;9.46;100.00;92611.47;5069556;28;20225;-76
2023/03/22 09:12:15;;;;;;;8.50;8.13;;;;;;;9.62;100.00;92639.75;5103567;28;20267;-75
2023/03/22 09:14:40;;;;;;;9.77;9.27;;;;;;;9.65;100.00;92638.44;5069735;28;20222;-75
2023/03/22 09:17:06;;;;;;;12.47;9.40;;;;;;;9.76;100.00;92655.56;5071127;28;20189;-76
2023/03/22 09:19:31;;;;;;;11.20;10.40;;;;;;;9.70;100.00;92648.81;5070384;28;20244;-76
2023/03/22 09:21:56;;;;;;;14.43;9.87;;;;;;;9.81;100.00;92634.66;5070847;28;20209;-74
2023/03/22 09:24:22;;;;;;;11.27;10.37;;;;;;;9.18;100.00;92641.59;5070196;28;20185;-76
2023/03/22 09:26:48;;;;;;;11.27;10.37;;;;;;;9.51;100.00;92659.13;5070551;28;20208;-75
2023/03/22 09:29:14;;;;;;;11.47;10.40;;;;;;;9.53;100.00;92638.78;5070453;28;20190;-76
2023/03/22 09:31:40;;;;;;;13.10;11.70;;;;;;;9.74;100.00;92658.44;5070287;28;20181;-75
2023/03/22 09:34:05;;;;;;;14.30;13.00;;;;;;;9.58;100.00;92666.63;5070435;28;20197;-76
2023/03/22 09:36:31;;;;;;;14.20;12.80;;;;;;;9.09;100.00;92647.66;5070237;28;20252;-76
2023/03/22 09:38:58;;;;;;;15.57;13.13;;;;;;;9.22;100.00;92642.63;5070409;28;20210;-76
2023/03/22 09:41:41;;;;;;;16.90;15.47;;;;;;;9.62;100.00;92655.41;5069559;28;20220;-75
2023/03/22 09:44:14;;;;;;;17.60;13.77;;;;;;;9.54;100.00;92657.81;5069955;28;20189;-75
2023/03/22 09:46:46;;;;;;;16.63;14.87;;;;;;;9.82;100.00;92662.31;5068691;28;20234;-76
2023/03/22 09:49:23;;;;;;;17.53;15.80;;;;;;;10.00;100.00;92658.25;5070701;28;20174;-75
2023/03/22 09:51:53;;;;;;;19.33;16.30;;;;;;;9.86;100.00;92660.72;5070564;28;20204;-75
2023/03/22 09:54:39;;;;;;;17.17;15.10;;;;;;;9.62;100.00;92646.78;5067743;28;20189;-75
2023/03/22 09:57:40;;;;;;;13.83;12.60;;;;;;;10.05;100.00;92658.22;5069303;28;20191;-75
2023/03/22 10:00:15;;;;;;;11.70;10.87;;;;;;;10.12;100.00;92659.47;5069539;28;20233;-75
2023/03/22 10:02:59;;;;;;;12.10;11.23;;;;;;;10.33;100.00;92654.88;5069223;28;20215;-76
2023/03/22 10:05:40;;;;;;;12.20;11.00;;;;;;;10.43;100.00;92658.16;5067622;28;20241;-76
2023/03/22 10:08:29;;;;;;;8.97;8.37;;;;;;;10.71;100.00;92667.00;5069639;28;20220;-76
2023/03/22 10:10:57;;;;;;;9.60;9.07;;;;;;;10.73;100.00;92659.69;5068859;28;20237;-75
2023/03/22 10:13:44;;;;;;;10.90;10.20;;;;;;;10.47;100.00;92635.69;5068462;28;21110;-76
2023/03/22 10:16:19;;;;;;;10.07;9.43;;;;;;;10.64;100.00;92663.94;5069410;28;20232;-76
2023/03/22 10:18:48;;;;;;;10.57;9.63;;;;;;;10.51;100.00;92652.34;5068401;28;20248;-75
2023/03/22 10:21:16;;;;;;;9.40;8.70;;;;;;;10.43;99.90;92668.59;5068467;28;20279;-76
2023/03/22 10:23:52;;;;;;;12.03;11.23;;;;;;;10.58;100.00;92681.50;5069413;28;20177;-76
2023/03/22 10:26:33;;;;;;;11.77;10.97;;;;;;;10.36;100.00;92673.38;5068767;28;20243;-76
2023/03/22 10:29:09;;;;;;;11.57;10.77;;;;;;;10.39;100.00;92678.03;5069451;28;20247;-76
2023/03/22 10:31:34;;;;;;;13.07;12.07;;;;;;;10.46;98.69;92673.25;5068777;28;20245;-74
2023/03/22 10:34:15;;;;;;;12.17;11.17;;;;;;;10.27;98.51;92655.97;5069374;28;20215;-76
2023/03/22 10:36:42;;;;;;;12.00;11.10;;;;;;;10.43;99.53;92673.06;5101737;28;20209;-76
2023/03/22 10:39:17;;;;;;;14.93;13.73;;;;;;;10.62;99.05;92668.66;5069111;28;20274;-75
2023/03/22 10:41:43;;;;;;;13.40;12.23;;;;;;;10.55;99.21;92658.53;5068638;28;20258;-76
2023/03/22 10:44:16;;;;;;;11.53;10.80;;;;;;;10.62;97.28;92681.72;5068239;28;20223;-75
2023/03/22 10:46:42;;;;;;;11.97;10.90;;;;;;;10.36;96.73;92639.44;5068815;28;20244;-76
2023/03/22 10:49:14;;;;;;;13.00;11.87;;;;;;;10.42;97.35;92674.88;5069124;28;20190;-75
2023/03/22 10:51:47;;;;;;;14.27;13.07;;;;;;;10.45;99.14;92676.13;5068661;28;20226;-75
2023/03/22 10:54:15;;;;;;;12.93;11.93;;;;;;;10.42;100.00;92667.03;5068068;28;20228;-76
2023/03/22 10:56:41;;;;;;;13.23;12.03;;;;;;;10.55;99.41;92683.88;5068814;28;20212;-75
2023/03/22 10:59:07;;;;;;;15.50;14.30;;;;;;;10.53;99.64;92668.50;5068767;28;20214;-76
2023/03/22 11:01:38;;;;;;;14.93;13.67;;;;;;;10.52;100.00;92668.78;5068718;28;20220;-75
2023/03/22 11:04:14;;;;;;;14.60;13.17;;;;;;;10.42;100.00;92676.69;5069042;28;20196;-75
2023/03/22 11:06:48;;;;;;;12.93;12.03;;;;;;;10.43;100.00;92645.09;5068379;28;20217;-76
2023/03/22 11:09:19;;;;;;;10.07;9.40;;;;;;;10.55;96.89;92660.41;5068279;28;20192;-76
2023/03/22 11:11:53;;;;;;;10.47;9.97;;;;;;;9.74;92.81;92621.94;5101314;28;20194;-75
2023/03/22 11:14:34;;;;;;;9.80;9.20;;;;;;;10.06;96.03;92629.25;5067768;28;20264;-76
2023/03/22 11:17:09;;;;;;;9.70;9.20;;;;;;;10.41;96.48;92662.84;5068533;28;20202;-75
2023/03/22 11:19:35;;;;;;;12.67;11.67;;;;;;;10.53;97.36;92667.72;5067729;28;20213;-76
2023/03/22 11:22:13;;;;;;;11.27;10.40;;;;;;;10.52;98.28;92663.56;5069213;28;20246;-77
2023/03/22 11:24:38;;;;;;;12.17;11.07;;;;;;;10.63;100.00;92659.78;5067614;28;20220;-76
2023/03/22 11:27:05;;;;;;;9.77;9.17;;;;;;;10.27;96.89;92651.53;5068870;28;20222;-76
2023/03/22 11:29:49;;;;;;;9.83;9.33;;;;;;;10.65;96.49;92653.22;5069982;28;20255;-76
2023/03/22 11:32:29;;;;;;;7.87;7.57;;;;;;;10.58;94.65;92644.97;5073075;28;20183;-76